sensor_id;sensor_type;location;lat;lon;timestamp;pressure;altitude;pressure_sealevel;temperature;humidity
4012;BME280;2020;48.682;9.024;2024-02-23T00:02:10;94521.81;;;3.69;100.00
4012;BME280;2020;48.682;9.024;2024-02-23T00:04:36;94520.84;;;3.70;100.00
4012;BME280;2020;48.682;9.024;2024-02-23T00:07:01;94518.59;;;3.67;100.00
4012;BME280;2020;48.682;9.024;2024-02-23T00:09:28;94513.44;;;3.67;100.00
4012;BME280;2020;48.682;9.024;2024-02-23T00:11:53;94519.88;;;3.71;100.00
4012;BME280;2020;48.682;9.024;2024-02-23T00:14:19;94527.09;;;3.68;100.00
4012;BME280;2020;48.682;9.024;2024-02-23T00:16:45;94534.81;;;3.68;100.00
4012;BME280;2020;48.682;9.024;2024-02-23T00:19:11;94537.88;;;3.71;100.00
4012;BME280;2020;48.682;9.024;2024-02-23T00:21:37;94523.56;;;3.60;100.00
4012;BME280;2020;48.682;9.024;2024-02-23T00:24:03;94551.38;;;3.65;100.00
4012;BME280;2020;48.682;9.024;2024-02-23T00:26:28;94560.41;;;3.69;100.00
4012;BME280;2020;48.682;9.024;2024-02-23T00:28:54;94559.25;;;3.72;100.00
4012;BME280;2020;48.682;9.024;2024-02-23T00:31:20;94559.44;;;3.62;100.00
4012;BME280;2020;48.682;9.024;2024-02-23T00:33:45;94563.59;;;3.63;100.00
4012;BME280;2020;48.682;9.024;2024-02-23T00:36:10;94576.81;;;3.68;100.00
4012;BME280;2020;48.682;9.024;2024-02-23T00:38:35;94561.03;;;3.71;100.00
4012;BME280;2020;48.682;9.024;2024-02-23T00:41:01;94561.84;;;3.72;100.00
4012;BME280;2020;48.682;9.024;2024-02-23T00:43:26;94562.16;;;3.69;100.00
4012;BME280;2020;48.682;9.024;2024-02-23T00:45:54;94552.69;;;3.69;100.00
4012;BME280;2020;48.682;9.024;2024-02-23T00:48:19;94559.56;;;3.60;100.00
4012;BME280;2020;48.682;9.024;2024-02-23T00:50:44;94556.22;;;3.68;100.00
4012;BME280;2020;48.682;9.024;2024-02-23T00:53:10;94563.28;;;3.66;100.00
4012;BME280;2020;48.682;9.024;2024-02-23T00:55:35;94573.25;;;3.69;100.00
4012;BME280;2020;48.682;9.024;2024-02-23T00:58:00;94588.69;;;3.69;100.00
4012;BME280;2020;48.682;9.024;2024-02-23T01:00:26;94578.72;;;3.66;100.00
4012;BME280;2020;48.682;9.024;2024-02-23T01:02:51;94569.22;;;3.66;99.89
4012;BME280;2020;48.682;9.024;2024-02-23T01:05:17;94580.03;;;3.70;100.00
4012;BME280;2020;48.682;9.024;2024-02-23T01:07:42;94591.56;;;3.58;100.00
4012;BME280;2020;48.682;9.024;2024-02-23T01:10:07;94585.94;;;3.54;99.12
4012;BME280;2020;48.682;9.024;2024-02-23T01:12:33;94576.13;;;3.58;99.73
4012;BME280;2020;48.682;9.024;2024-02-23T01:14:58;94575.00;;;3.60;100.00
4012;BME280;2020;48.682;9.024;2024-02-23T01:17:23;94551.22;;;3.58;99.42
4012;BME280;2020;48.682;9.024;2024-02-23T01:19:49;94557.50;;;3.56;100.00
4012;BME280;2020;48.682;9.024;2024-02-23T01:22:14;94567.78;;;3.56;99.29
4012;BME280;2020;48.682;9.024;2024-02-23T01:24:40;94566.47;;;3.51;98.94
4012;BME280;2020;48.682;9.024;2024-02-23T01:27:05;94572.94;;;3.56;99.63
4012;BME280;2020;48.682;9.024;2024-02-23T01:29:30;94584.31;;;3.53;99.24
4012;BME280;2020;48.682;9.024;2024-02-23T01:31:55;94563.75;;;3.53;98.89
4012;BME280;2020;48.682;9.024;2024-02-23T01:34:21;94581.41;;;3.48;99.78
4012;BME280;2020;48.682;9.024;2024-02-23T01:36:46;94584.94;;;3.47;99.55
4012;BME280;2020;48.682;9.024;2024-02-23T01:39:12;94592.53;;;3.48;100.00
4012;BME280;2020;48.682;9.024;2024-02-23T01:41:37;94587.69;;;3.45;99.24
4012;BME280;2020;48.682;9.024;2024-02-23T01:44:02;94588.00;;;3.42;98.97
4012;BME280;2020;48.682;9.024;2024-02-23T01:46:28;94591.53;;;3.41;98.44
4012;BME280;2020;48.682;9.024;2024-02-23T01:48:53;94589.63;;;3.43;97.49
4012;BME280;2020;48.682;9.024;2024-02-23T01:51:19;94591.84;;;3.38;98.46
4012;BME280;2020;48.682;9.024;2024-02-23T01:53:45;94584.78;;;3.40;97.87
4012;BME280;2020;48.682;9.024;2024-02-23T01:56:11;94584.78;;;3.40;97.33
4012;BME280;2020;48.682;9.024;2024-02-23T01:58:43;94594.25;;;3.40;97.89
4012;BME280;2020;48.682;9.024;2024-02-23T02:01:08;94602.16;;;3.38;96.60
4012;BME280;2020;48.682;9.024;2024-02-23T02:03:34;94598.09;;;3.35;97.01
4012;BME280;2020;48.682;9.024;2024-02-23T02:06:00;94584.78;;;3.32;97.05
4012;BME280;2020;48.682;9.024;2024-02-23T02:08:26;94597.31;;;3.35;96.60
4012;BME280;2020;48.682;9.024;2024-02-23T02:10:51;94604.38;;;3.33;97.44
4012;BME280;2020;48.682;9.024;2024-02-23T02:13:17;94611.59;;;3.29;97.64
4012;BME280;2020;48.682;9.024;2024-02-23T02:15:42;94611.28;;;3.32;97.18
4012;BME280;2020;48.682;9.024;2024-02-23T02:18:09;94611.13;;;3.34;96.89
4012;BME280;2020;48.682;9.024;2024-02-23T02:20:36;94613.72;;;3.34;96.80
4012;BME280;2020;48.682;9.024;2024-02-23T02:23:01;94609.53;;;3.33;97.09
4012;BME280;2020;48.682;9.024;2024-02-23T02:25:26;94626.25;;;3.37;98.40
4012;BME280;2020;48.682;9.024;2024-02-23T02:27:52;94619.50;;;3.36;97.95
4012;BME280;2020;48.682;9.024;2024-02-23T02:30:17;94616.28;;;3.34;98.44
4012;BME280;2020;48.682;9.024;2024-02-23T02:32:42;94616.88;;;3.28;97.94
4012;BME280;2020;48.682;9.024;2024-02-23T02:35:10;94617.03;;;3.26;97.54
4012;BME280;2020;48.682;9.024;2024-02-23T02:37:36;94615.56;;;3.24;96.09
4012;BME280;2020;48.682;9.024;2024-02-23T02:40:01;94596.63;;;3.25;96.17
4012;BME280;2020;48.682;9.024;2024-02-23T02:42:27;94597.44;;;3.25;94.60
4012;BME280;2020;48.682;9.024;2024-02-23T02:44:54;94606.91;;;3.25;93.61
4012;BME280;2020;48.682;9.024;2024-02-23T02:47:19;94605.94;;;3.26;91.60
4012;BME280;2020;48.682;9.024;2024-02-23T02:49:44;94598.84;;;3.19;90.25
4012;BME280;2020;48.682;9.024;2024-02-23T02:52:09;94605.28;;;3.24;89.66
4012;BME280;2020;48.682;9.024;2024-02-23T02:54:35;94609.13;;;3.19;88.02
4012;BME280;2020;48.682;9.024;2024-02-23T02:57:00;94602.25;;;3.20;87.43
4012;BME280;2020;48.682;9.024;2024-02-23T02:59:25;94602.69;;;3.15;85.72
4012;BME280;2020;48.682;9.024;2024-02-23T03:01:51;94616.19;;;3.17;87.24
4012;BME280;2020;48.682;9.024;2024-02-23T03:04:16;94614.88;;;3.13;85.98
4012;BME280;2020;48.682;9.024;2024-02-23T03:06:41;94587.88;;;3.09;83.89
4012;BME280;2020;48.682;9.024;2024-02-23T03:09:06;94590.31;;;3.11;85.72
4012;BME280;2020;48.682;9.024;2024-02-23T03:11:32;94606.22;;;3.14;84.98
4012;BME280;2020;48.682;9.024;2024-02-23T03:13:58;94609.91;;;3.12;84.10
4012;BME280;2020;48.682;9.024;2024-02-23T03:16:23;94604.59;;;3.13;85.58
4012;BME280;2020;48.682;9.024;2024-02-23T03:18:51;94594.81;;;3.09;83.85
4012;BME280;2020;48.682;9.024;2024-02-23T03:21:16;94593.66;;;3.03;84.93
4012;BME280;2020;48.682;9.024;2024-02-23T03:23:41;94603.78;;;3.04;82.79
4012;BME280;2020;48.682;9.024;2024-02-23T03:26:07;94617.75;;;3.02;83.57
4012;BME280;2020;48.682;9.024;2024-02-23T03:28:33;94616.78;;;3.03;83.06
4012;BME280;2020;48.682;9.024;2024-02-23T03:30:59;94602.94;;;2.96;81.84
4012;BME280;2020;48.682;9.024;2024-02-23T03:33:25;94597.78;;;2.96;81.05
4012;BME280;2020;48.682;9.024;2024-02-23T03:35:50;94595.69;;;2.91;80.65
4012;BME280;2020;48.682;9.024;2024-02-23T03:38:15;94611.59;;;2.95;81.52
4012;BME280;2020;48.682;9.024;2024-02-23T03:40:41;94610.81;;;2.94;81.32
4012;BME280;2020;48.682;9.024;2024-02-23T03:43:06;94612.56;;;2.93;82.65
4012;BME280;2020;48.682;9.024;2024-02-23T03:45:31;94605.47;;;2.87;80.96
4012;BME280;2020;48.682;9.024;2024-02-23T03:47:57;94614.66;;;2.90;82.20
4012;BME280;2020;48.682;9.024;2024-02-23T03:50:22;94622.50;;;2.88;81.05
4012;BME280;2020;48.682;9.024;2024-02-23T03:52:47;94630.38;;;2.87;81.46
4012;BME280;2020;48.682;9.024;2024-02-23T03:55:13;94640.13;;;2.83;81.93
4012;BME280;2020;48.682;9.024;2024-02-23T03:57:38;94635.31;;;2.80;82.93
4012;BME280;2020;48.682;9.024;2024-02-23T04:00:04;94632.28;;;2.85;83.03
4012;BME280;2020;48.682;9.024;2024-02-23T04:02:31;94619.75;;;2.82;81.91
4012;BME280;2020;48.682;9.024;2024-02-23T04:04:56;94612.84;;;2.82;82.19
4012;BME280;2020;48.682;9.024;2024-02-23T04:07:21;94619.53;;;2.75;82.68
4012;BME280;2020;48.682;9.024;2024-02-23T04:09:47;94630.34;;;2.78;82.59
4012;BME280;2020;48.682;9.024;2024-02-23T04:12:21;94623.09;;;2.82;83.60
4012;BME280;2020;48.682;9.024;2024-02-23T04:14:47;94619.88;;;2.80;82.56
4012;BME280;2020;48.682;9.024;2024-02-23T04:17:12;94617.31;;;2.80;82.69
4012;BME280;2020;48.682;9.024;2024-02-23T04:19:37;94625.31;;;2.77;83.66
4012;BME280;2020;48.682;9.024;2024-02-23T04:22:03;94616.97;;;2.75;82.00
4012;BME280;2020;48.682;9.024;2024-02-23T04:24:29;94619.19;;;2.70;83.11
4012;BME280;2020;48.682;9.024;2024-02-23T04:26:54;94619.69;;;2.73;83.21
4012;BME280;2020;48.682;9.024;2024-02-23T04:29:19;94619.41;;;2.76;83.68
4012;BME280;2020;48.682;9.024;2024-02-23T04:31:44;94613.59;;;2.74;83.99
4012;BME280;2020;48.682;9.024;2024-02-23T04:34:10;94607.81;;;2.72;82.10
4012;BME280;2020;48.682;9.024;2024-02-23T04:36:35;94620.19;;;2.77;83.24
4012;BME280;2020;48.682;9.024;2024-02-23T04:39:00;94623.72;;;2.76;82.82
4012;BME280;2020;48.682;9.024;2024-02-23T04:41:26;94624.03;;;2.73;82.14
4012;BME280;2020;48.682;9.024;2024-02-23T04:43:51;94609.53;;;2.63;83.69
4012;BME280;2020;48.682;9.024;2024-02-23T04:46:17;94604.69;;;2.60;81.58
4012;BME280;2020;48.682;9.024;2024-02-23T04:48:42;94616.56;;;2.61;83.05
4012;BME280;2020;48.682;9.024;2024-02-23T04:51:07;94610.91;;;2.58;82.46
4012;BME280;2020;48.682;9.024;2024-02-23T04:53:37;94615.97;;;2.68;82.28
4012;BME280;2020;48.682;9.024;2024-02-23T04:56:04;94610.53;;;2.71;83.82
4012;BME280;2020;48.682;9.024;2024-02-23T04:58:29;94592.88;;;2.76;84.73
4012;BME280;2020;48.682;9.024;2024-02-23T05:00:54;94586.13;;;2.75;84.06
4012;BME280;2020;48.682;9.024;2024-02-23T05:03:20;94589.66;;;2.74;85.05
4012;BME280;2020;48.682;9.024;2024-02-23T05:05:46;94583.75;;;2.73;84.71
4012;BME280;2020;48.682;9.024;2024-02-23T05:08:11;94586.44;;;2.72;84.59
4012;BME280;2020;48.682;9.024;2024-02-23T05:10:36;94585.13;;;2.68;84.67
4012;BME280;2020;48.682;9.024;2024-02-23T05:13:01;94588.66;;;2.67;84.65
4012;BME280;2020;48.682;9.024;2024-02-23T05:15:27;94588.66;;;2.67;84.82
4012;BME280;2020;48.682;9.024;2024-02-23T05:17:52;94595.72;;;2.65;84.56
4012;BME280;2020;48.682;9.024;2024-02-23T05:20:17;94600.56;;;2.68;86.13
4012;BME280;2020;48.682;9.024;2024-02-23T05:22:42;94600.16;;;2.54;85.09
4012;BME280;2020;48.682;9.024;2024-02-23T05:25:08;94598.53;;;2.53;85.92
4012;BME280;2020;48.682;9.024;2024-02-23T05:27:33;94600.81;;;2.56;85.60
4012;BME280;2020;48.682;9.024;2024-02-23T05:29:59;94608.50;;;2.56;85.61
4012;BME280;2020;48.682;9.024;2024-02-23T05:32:25;94611.75;;;2.58;85.84
4012;BME280;2020;48.682;9.024;2024-02-23T05:34:50;94618.78;;;2.56;86.29
4012;BME280;2020;48.682;9.024;2024-02-23T05:37:18;94622.75;;;2.51;85.83
4012;BME280;2020;48.682;9.024;2024-02-23T05:39:43;94631.59;;;2.48;87.92
4012;BME280;2020;48.682;9.024;2024-02-23T05:42:11;94638.31;;;2.49;87.41
4012;BME280;2020;48.682;9.024;2024-02-23T05:44:37;94633.50;;;2.46;88.75
4012;BME280;2020;48.682;9.024;2024-02-23T05:47:02;94638.63;;;2.46;88.22
4012;BME280;2020;48.682;9.024;2024-02-23T05:49:27;94635.72;;;2.41;87.55
4012;BME280;2020;48.682;9.024;2024-02-23T05:51:52;94637.78;;;2.19;88.39
4012;BME280;2020;48.682;9.024;2024-02-23T05:54:18;94645.84;;;2.24;89.23
4012;BME280;2020;48.682;9.024;2024-02-23T05:56:44;94640.41;;;2.27;90.63
4012;BME280;2020;48.682;9.024;2024-02-23T05:59:11;94635.34;;;2.36;89.66
4012;BME280;2020;48.682;9.024;2024-02-23T06:01:36;94645.25;;;2.30;89.93
4012;BME280;2020;48.682;9.024;2024-02-23T06:04:01;94645.56;;;2.27;90.35
4012;BME280;2020;48.682;9.024;2024-02-23T06:06:27;94646.81;;;2.23;91.07
4012;BME280;2020;48.682;9.024;2024-02-23T06:08:52;94639.41;;;2.20;92.03
4012;BME280;2020;48.682;9.024;2024-02-23T06:11:18;94646.50;;;2.08;93.32
4012;BME280;2020;48.682;9.024;2024-02-23T06:13:43;94656.06;;;1.98;94.95
4012;BME280;2020;48.682;9.024;2024-02-23T06:16:11;94660.09;;;2.00;95.25
4012;BME280;2020;48.682;9.024;2024-02-23T06:18:38;94664.19;;;1.93;96.50
4012;BME280;2020;48.682;9.024;2024-02-23T06:21:15;94665.06;;;1.84;97.40
4012;BME280;2020;48.682;9.024;2024-02-23T06:23:42;94670.47;;;1.81;98.59
4012;BME280;2020;48.682;9.024;2024-02-23T06:26:08;94665.72;;;1.86;98.87
4012;BME280;2020;48.682;9.024;2024-02-23T06:28:33;94673.13;;;1.89;98.75
4012;BME280;2020;48.682;9.024;2024-02-23T06:30:59;94674.44;;;1.93;98.88
4012;BME280;2020;48.682;9.024;2024-02-23T06:33:24;94672.31;;;1.88;99.65
4012;BME280;2020;48.682;9.024;2024-02-23T06:35:50;94662.56;;;1.92;100.00
4012;BME280;2020;48.682;9.024;2024-02-23T06:38:15;94667.19;;;1.88;100.00
4012;BME280;2020;48.682;9.024;2024-02-23T06:40:40;94656.47;;;1.93;100.00
4012;BME280;2020;48.682;9.024;2024-02-23T06:43:06;94657.13;;;1.95;100.00
4012;BME280;2020;48.682;9.024;2024-02-23T06:45:31;94657.78;;;1.97;100.00
4012;BME280;2020;48.682;9.024;2024-02-23T06:47:56;94661.06;;;1.99;100.00
4012;BME280;2020;48.682;9.024;2024-02-23T06:50:21;94650.09;;;1.97;100.00
4012;BME280;2020;48.682;9.024;2024-02-23T06:52:48;94650.38;;;1.94;99.96
4012;BME280;2020;48.682;9.024;2024-02-23T06:55:14;94648.22;;;1.99;100.00
4012;BME280;2020;48.682;9.024;2024-02-23T06:57:39;94651.81;;;2.07;99.55
4012;BME280;2020;48.682;9.024;2024-02-23T07:00:05;94651.72;;;1.98;99.53
4012;BME280;2020;48.682;9.024;2024-02-23T07:02:32;94668.47;;;2.02;99.93
4012;BME280;2020;48.682;9.024;2024-02-23T07:05:01;94664.94;;;2.03;99.04
4012;BME280;2020;48.682;9.024;2024-02-23T07:07:29;94674.91;;;2.07;99.07
4012;BME280;2020;48.682;9.024;2024-02-23T07:09:55;94676.22;;;2.11;98.37
4012;BME280;2020;48.682;9.024;2024-02-23T07:12:20;94670.50;;;2.17;98.23
4012;BME280;2020;48.682;9.024;2024-02-23T07:14:46;94675.63;;;2.17;98.22
4012;BME280;2020;48.682;9.024;2024-02-23T07:17:11;94674.38;;;2.21;97.95
4012;BME280;2020;48.682;9.024;2024-02-23T07:19:36;94679.22;;;2.24;97.53
4012;BME280;2020;48.682;9.024;2024-02-23T07:22:01;94681.78;;;2.24;96.82
4012;BME280;2020;48.682;9.024;2024-02-23T07:24:27;94688.91;;;2.30;97.00
4012;BME280;2020;48.682;9.024;2024-02-23T07:26:52;94687.66;;;2.34;96.23
4012;BME280;2020;48.682;9.024;2024-02-23T07:29:17;94677.53;;;2.15;96.05
4012;BME280;2020;48.682;9.024;2024-02-23T07:31:43;94684.06;;;2.27;96.50
4012;BME280;2020;48.682;9.024;2024-02-23T07:34:08;94684.56;;;2.31;96.37
4012;BME280;2020;48.682;9.024;2024-02-23T07:36:33;94672.53;;;2.31;95.43
4012;BME280;2020;48.682;9.024;2024-02-23T07:38:59;94674.34;;;2.39;95.32
4012;BME280;2020;48.682;9.024;2024-02-23T07:41:24;94671.28;;;2.36;93.96
4012;BME280;2020;48.682;9.024;2024-02-23T07:43:50;94674.88;;;2.43;94.42
4012;BME280;2020;48.682;9.024;2024-02-23T07:46:15;94668.19;;;2.50;94.91
4012;BME280;2020;48.682;9.024;2024-02-23T07:48:41;94655.66;;;2.47;92.97
4012;BME280;2020;48.682;9.024;2024-02-23T07:51:07;94668.94;;;2.42;92.67
4012;BME280;2020;48.682;9.024;2024-02-23T07:53:32;94674.34;;;2.39;91.95
4012;BME280;2020;48.682;9.024;2024-02-23T07:55:59;94683.38;;;2.43;92.34
4012;BME280;2020;48.682;9.024;2024-02-23T07:58:27;94679.19;;;2.42;92.19
4012;BME280;2020;48.682;9.024;2024-02-23T08:00:52;94684.19;;;2.44;91.74
4012;BME280;2020;48.682;9.024;2024-02-23T08:03:18;94691.69;;;2.37;91.40
4012;BME280;2020;48.682;9.024;2024-02-23T08:05:43;94689.47;;;2.42;91.58
4012;BME280;2020;48.682;9.024;2024-02-23T08:08:08;94695.66;;;2.31;91.16
4012;BME280;2020;48.682;9.024;2024-02-23T08:10:34;94685.03;;;2.26;91.57
4012;BME280;2020;48.682;9.024;2024-02-23T08:12:59;94684.38;;;2.24;90.06
4012;BME280;2020;48.682;9.024;2024-02-23T08:15:25;94683.69;;;2.22;89.67
4012;BME280;2020;48.682;9.024;2024-02-23T08:17:50;94679.59;;;2.29;90.29
4012;BME280;2020;48.682;9.024;2024-02-23T08:20:15;94678.41;;;2.42;90.87
4012;BME280;2020;48.682;9.024;2024-02-23T08:22:41;94678.09;;;2.45;89.66
4012;BME280;2020;48.682;9.024;2024-02-23T08:25:06;94685.16;;;2.43;88.80
4012;BME280;2020;48.682;9.024;2024-02-23T08:27:33;94681.81;;;2.51;88.86
4012;BME280;2020;48.682;9.024;2024-02-23T08:29:58;94691.97;;;2.52;87.77
4012;BME280;2020;48.682;9.024;2024-02-23T08:32:24;94691.59;;;2.47;87.28
4012;BME280;2020;48.682;9.024;2024-02-23T08:34:49;94685.44;;;2.40;87.40
4012;BME280;2020;48.682;9.024;2024-02-23T08:37:15;94679.00;;;2.36;86.93
4012;BME280;2020;48.682;9.024;2024-02-23T08:39:40;94698.22;;;2.31;86.54
4012;BME280;2020;48.682;9.024;2024-02-23T08:42:05;94691.47;;;2.30;86.15
4012;BME280;2020;48.682;9.024;2024-02-23T08:44:31;94686.34;;;2.30;88.13
4012;BME280;2020;48.682;9.024;2024-02-23T08:46:56;94685.75;;;2.37;86.83
4012;BME280;2020;48.682;9.024;2024-02-23T08:49:21;94677.38;;;2.34;86.22
4012;BME280;2020;48.682;9.024;2024-02-23T08:51:46;94686.03;;;2.33;86.19
4012;BME280;2020;48.682;9.024;2024-02-23T08:54:12;94675.19;;;2.40;86.91
4012;BME280;2020;48.682;9.024;2024-02-23T08:56:38;94681.94;;;2.41;86.50
4012;BME280;2020;48.682;9.024;2024-02-23T08:59:08;94683.84;;;2.39;87.35
4012;BME280;2020;48.682;9.024;2024-02-23T09:01:34;94680.91;;;2.33;87.30
4012;BME280;2020;48.682;9.024;2024-02-23T09:03:59;94690.53;;;2.31;87.16
4012;BME280;2020;48.682;9.024;2024-02-23T09:06:25;94685.03;;;2.26;87.56
4012;BME280;2020;48.682;9.024;2024-02-23T09:08:50;94692.19;;;2.23;87.91
4012;BME280;2020;48.682;9.024;2024-02-23T09:11:15;94684.00;;;2.19;88.06
4012;BME280;2020;48.682;9.024;2024-02-23T09:13:41;94684.66;;;2.21;88.18
4012;BME280;2020;48.682;9.024;2024-02-23T09:16:07;94683.13;;;2.28;88.60
4012;BME280;2020;48.682;9.024;2024-02-23T09:18:33;94682.94;;;2.30;87.65
4012;BME280;2020;48.682;9.024;2024-02-23T09:20:59;94686.84;;;2.34;87.33
4012;BME280;2020;48.682;9.024;2024-02-23T09:23:24;94690.13;;;2.44;87.24
4012;BME280;2020;48.682;9.024;2024-02-23T09:25:50;94686.75;;;2.44;86.97
4012;BME280;2020;48.682;9.024;2024-02-23T09:28:15;94686.47;;;2.47;86.47
4012;BME280;2020;48.682;9.024;2024-02-23T09:30:40;94690.09;;;2.62;87.06
4012;BME280;2020;48.682;9.024;2024-02-23T09:33:05;94697.88;;;2.71;85.22
4012;BME280;2020;48.682;9.024;2024-02-23T09:35:31;94693.13;;;2.84;85.90
4012;BME280;2020;48.682;9.024;2024-02-23T09:37:56;94699.91;;;3.12;84.90
4012;BME280;2020;48.682;9.024;2024-02-23T09:40:21;94701.91;;;3.26;84.10
4012;BME280;2020;48.682;9.024;2024-02-23T09:42:56;94706.63;;;3.39;83.37
4012;BME280;2020;48.682;9.024;2024-02-23T09:45:22;94700.56;;;3.48;81.24
4012;BME280;2020;48.682;9.024;2024-02-23T09:47:49;94695.72;;;3.45;81.83
4012;BME280;2020;48.682;9.024;2024-02-23T09:50:15;94703.72;;;3.34;82.39
4012;BME280;2020;48.682;9.024;2024-02-23T09:52:42;94714.97;;;3.33;83.49
4012;BME280;2020;48.682;9.024;2024-02-23T09:55:08;94712.66;;;3.30;82.65
4012;BME280;2020;48.682;9.024;2024-02-23T09:57:34;94704.41;;;3.44;82.97
4012;BME280;2020;48.682;9.024;2024-02-23T10:00:01;94707.06;;;3.69;82.59
4012;BME280;2020;48.682;9.024;2024-02-23T10:02:31;94707.75;;;3.79;83.17
4012;BME280;2020;48.682;9.024;2024-02-23T10:04:58;94701.03;;;3.95;82.45
4012;BME280;2020;48.682;9.024;2024-02-23T10:07:25;94699.06;;;3.80;80.33
4012;BME280;2020;48.682;9.024;2024-02-23T10:09:50;94697.28;;;3.89;80.13
4012;BME280;2020;48.682;9.024;2024-02-23T10:12:16;94696.88;;;4.35;81.56
4012;BME280;2020;48.682;9.024;2024-02-23T10:14:41;94709.59;;;4.20;79.36
4012;BME280;2020;48.682;9.024;2024-02-23T10:17:07;94718.09;;;4.13;77.62
4012;BME280;2020;48.682;9.024;2024-02-23T10:19:33;94710.06;;;4.07;77.68
4012;BME280;2020;48.682;9.024;2024-02-23T10:21:59;94716.50;;;4.12;78.41
4012;BME280;2020;48.682;9.024;2024-02-23T10:24:24;94720.34;;;4.07;78.21
4012;BME280;2020;48.682;9.024;2024-02-23T10:26:51;94721.66;;;4.12;78.33
4012;BME280;2020;48.682;9.024;2024-02-23T10:29:16;94711.38;;;4.28;76.07
4012;BME280;2020;48.682;9.024;2024-02-23T10:31:41;94713.63;;;4.31;76.61
4012;BME280;2020;48.682;9.024;2024-02-23T10:34:09;94702.03;;;4.35;76.43
4012;BME280;2020;48.682;9.024;2024-02-23T10:36:40;94712.34;;;4.44;75.83
4012;BME280;2020;48.682;9.024;2024-02-23T10:39:07;94693.34;;;4.53;74.67
4012;BME280;2020;48.682;9.024;2024-02-23T10:41:35;94704.97;;;4.74;75.03
4012;BME280;2020;48.682;9.024;2024-02-23T10:44:01;94704.16;;;4.40;73.54
4012;BME280;2020;48.682;9.024;2024-02-23T10:46:30;94703.66;;;4.36;74.44
4012;BME280;2020;48.682;9.024;2024-02-23T10:48:58;94705.63;;;4.67;74.66
4012;BME280;2020;48.682;9.024;2024-02-23T10:51:24;94712.03;;;4.88;73.83
4012;BME280;2020;48.682;9.024;2024-02-23T10:53:52;94699.81;;;4.74;72.39
4012;BME280;2020;48.682;9.024;2024-02-23T10:56:17;94704.13;;;4.81;69.81
4012;BME280;2020;48.682;9.024;2024-02-23T10:58:43;94699.47;;;4.77;71.36
4012;BME280;2020;48.682;9.024;2024-02-23T11:01:09;94698.50;;;4.86;72.18
4012;BME280;2020;48.682;9.024;2024-02-23T11:03:36;94695.91;;;4.94;70.70
4012;BME280;2020;48.682;9.024;2024-02-23T11:06:06;94688.19;;;4.86;71.69
4012;BME280;2020;48.682;9.024;2024-02-23T11:08:33;94686.59;;;4.85;70.30
4012;BME280;2020;48.682;9.024;2024-02-23T11:11:10;94691.88;;;4.83;71.77
4012;BME280;2020;48.682;9.024;2024-02-23T11:16:05;94687.53;;;4.59;70.99
4012;BME280;2020;48.682;9.024;2024-02-23T11:18:35;94691.59;;;4.53;71.46
4012;BME280;2020;48.682;9.024;2024-02-23T11:21:02;94680.47;;;4.61;73.85
4012;BME280;2020;48.682;9.024;2024-02-23T11:23:50;94686.91;;;4.82;73.72
4012;BME280;2020;48.682;9.024;2024-02-23T11:26:16;94685.31;;;4.81;73.77
4012;BME280;2020;48.682;9.024;2024-02-23T11:28:48;94679.84;;;4.67;71.33
4012;BME280;2020;48.682;9.024;2024-02-23T11:31:16;94674.03;;;4.74;72.25
4012;BME280;2020;48.682;9.024;2024-02-23T11:33:51;94672.41;;;4.73;71.39
4012;BME280;2020;48.682;9.024;2024-02-23T11:36:34;94669.53;;;4.76;72.03
4012;BME280;2020;48.682;9.024;2024-02-23T11:39:01;94677.09;;;4.69;71.38
4012;BME280;2020;48.682;9.024;2024-02-23T11:41:27;94675.31;;;4.70;70.53
4012;BME280;2020;48.682;9.024;2024-02-23T11:43:54;94680.94;;;4.65;70.96
4012;BME280;2020;48.682;9.024;2024-02-23T11:46:20;94676.91;;;4.62;70.81
4012;BME280;2020;48.682;9.024;2024-02-23T11:48:46;94674.34;;;4.79;72.18
4012;BME280;2020;48.682;9.024;2024-02-23T11:51:15;94671.78;;;4.79;70.66
4012;BME280;2020;48.682;9.024;2024-02-23T11:53:40;94665.34;;;4.75;70.01
4012;BME280;2020;48.682;9.024;2024-02-23T11:56:06;94670.81;;;4.80;69.83
4012;BME280;2020;48.682;9.024;2024-02-23T11:58:32;94663.06;;;4.88;70.61
4012;BME280;2020;48.682;9.024;2024-02-23T12:00:58;94655.59;;;5.02;69.78
4012;BME280;2020;48.682;9.024;2024-02-23T12:03:26;94663.31;;;5.10;70.46
4012;BME280;2020;48.682;9.024;2024-02-23T12:05:51;94656.56;;;5.09;69.85
4012;BME280;2020;48.682;9.024;2024-02-23T12:08:17;94665.28;;;5.00;68.08
4012;BME280;2020;48.682;9.024;2024-02-23T12:10:43;94658.34;;;5.00;69.88
4012;BME280;2020;48.682;9.024;2024-02-23T12:13:08;94654.13;;;5.07;70.36
4012;BME280;2020;48.682;9.024;2024-02-23T12:15:34;94658.50;;;5.07;70.56
4012;BME280;2020;48.682;9.024;2024-02-23T12:17:59;94649.16;;;4.97;68.26
4012;BME280;2020;48.682;9.024;2024-02-23T12:20:27;94645.97;;;4.95;69.21
4012;BME280;2020;48.682;9.024;2024-02-23T12:22:54;94650.44;;;5.02;70.64
4012;BME280;2020;48.682;9.024;2024-02-23T12:25:20;94641.41;;;5.06;71.91
4012;BME280;2020;48.682;9.024;2024-02-23T12:27:46;94649.16;;;4.97;68.86
4012;BME280;2020;48.682;9.024;2024-02-23T12:30:15;94645.28;;;5.02;71.50
4012;BME280;2020;48.682;9.024;2024-02-23T12:32:42;94654.66;;;4.94;68.95
4012;BME280;2020;48.682;9.024;2024-02-23T12:35:10;94656.59;;;4.92;68.31
4012;BME280;2020;48.682;9.024;2024-02-23T12:37:35;94654.69;;;4.78;67.71
4012;BME280;2020;48.682;9.024;2024-02-23T12:40:01;94652.44;;;4.83;68.70
4012;BME280;2020;48.682;9.024;2024-02-23T12:42:26;94650.16;;;4.88;68.28
4012;BME280;2020;48.682;9.024;2024-02-23T12:44:51;94648.22;;;4.90;69.84
4012;BME280;2020;48.682;9.024;2024-02-23T12:47:16;94649.84;;;4.91;69.54
4012;BME280;2020;48.682;9.024;2024-02-23T12:49:42;94653.50;;;4.97;68.94
4012;BME280;2020;48.682;9.024;2024-02-23T12:52:07;94646.59;;;4.97;67.08
4012;BME280;2020;48.682;9.024;2024-02-23T12:54:32;94647.56;;;4.96;68.83
4012;BME280;2020;48.682;9.024;2024-02-23T12:56:58;94649.47;;;5.03;67.10
4012;BME280;2020;48.682;9.024;2024-02-23T12:59:23;94632.09;;;4.96;68.33
4012;BME280;2020;48.682;9.024;2024-02-23T13:01:48;94643.03;;;5.07;70.33
4012;BME280;2020;48.682;9.024;2024-02-23T13:04:13;94645.41;;;5.08;69.53
4012;BME280;2020;48.682;9.024;2024-02-23T13:06:39;94645.09;;;5.11;69.62
4012;BME280;2020;48.682;9.024;2024-02-23T13:09:06;94647.63;;;5.20;70.08
4012;BME280;2020;48.682;9.024;2024-02-23T13:11:37;94642.00;;;5.24;70.50
4012;BME280;2020;48.682;9.024;2024-02-23T13:14:03;94643.28;;;5.29;69.97
4012;BME280;2020;48.682;9.024;2024-02-23T13:16:28;94644.91;;;5.21;69.81
4012;BME280;2020;48.682;9.024;2024-02-23T13:18:54;94655.56;;;5.18;69.40
4012;BME280;2020;48.682;9.024;2024-02-23T13:21:19;94657.03;;;5.04;70.69
4012;BME280;2020;48.682;9.024;2024-02-23T13:23:45;94653.00;;;5.10;70.98
4012;BME280;2020;48.682;9.024;2024-02-23T13:26:10;94643.97;;;5.14;71.54
4012;BME280;2020;48.682;9.024;2024-02-23T13:28:39;94639.75;;;5.21;70.52